Time;durP1;ratioP1;P1;durP2;ratioP2;P2;SDS_P1;SDS_P2;PMS_P1;PMS_P2;Temp;Humidity;BMP_temperature;BMP_pressure;BME280_temperature;BME280_humidity;BME280_pressure;Samples;Min_cycle;Max_cycle;Signal;HPM_P1;HPM_P2
2023/10/10 00:00:48;;;;;;;;;;;15.40;99.90;;;;;;7322344;19;11160;-75
2023/10/10 00:03:19;;;;;;;;;;;15.40;99.90;;;;;;7323868;19;9220;-75
2023/10/10 00:05:48;;;;;;;;;;;15.40;99.90;;;;;;7321547;19;9501;-76
2023/10/10 00:08:20;;;;;;;;;;;15.40;99.90;;;;;;7323401;19;9136;-76
2023/10/10 00:10:51;;;;;;;;;;;15.40;99.90;;;;;;7320796;19;9423;-74
2023/10/10 00:13:23;;;;;;;;;;;15.40;99.90;;;;;;7321327;19;9652;-75
2023/10/10 00:15:55;;;;;;;;;;;15.40;99.90;;;;;;7323319;19;10305;-76
2023/10/10 00:18:25;;;;;;;;;;;15.40;99.90;;;;;;7320562;19;9504;-76
2023/10/10 00:23:42;;;;;;;;;;;15.40;99.90;;;;;;7321856;19;9170;-76
2023/10/10 00:26:14;;;;;;;;;;;15.40;99.90;;;;;;7320359;19;9386;-76
2023/10/10 00:28:53;;;;;;;;;;;15.50;99.90;;;;;;7322472;19;9325;-75
2023/10/10 00:31:22;;;;;;;;;;;15.50;99.90;;;;;;7323075;19;10423;-75
2023/10/10 00:33:53;;;;;;;;;;;15.50;99.90;;;;;;7320720;19;9351;-76
2023/10/10 00:36:31;;;;;;;;;;;15.50;99.90;;;;;;7321995;19;9243;-76
2023/10/10 00:39:05;;;;;;;;;;;15.50;99.90;;;;;;7318907;19;9257;-75
2023/10/10 00:41:42;;;;;;;;;;;15.60;99.90;;;;;;7320075;19;9215;-76
2023/10/10 00:44:16;;;;;;;;;;;15.60;99.90;;;;;;7321847;19;9261;-75
2023/10/10 00:46:47;;;;;;;;;;;15.60;99.90;;;;;;7316966;19;9237;-76
2023/10/10 00:49:17;;;;;;;;;;;15.60;99.90;;;;;;7321575;19;9321;-76
2023/10/10 00:51:48;;;;;;;;;;;15.60;99.90;;;;;;7321598;19;9592;-75
2023/10/10 00:54:31;;;;;;;;;;;15.60;99.90;;;;;;7322028;19;9297;-76
2023/10/10 00:57:08;;;;;;;;;;;15.60;99.90;;;;;;7322045;19;9428;-76
2023/10/10 00:59:43;;;;;;;;;;;15.60;99.90;;;;;;7320621;19;9257;-76
2023/10/10 01:02:14;;;;;;;;;;;15.70;99.90;;;;;;7320357;19;9245;-76
2023/10/10 01:04:55;;;;;;;;;;;15.70;99.90;;;;;;7322538;19;9142;-76
2023/10/10 01:07:25;;;;;;;;;;;15.70;99.90;;;;;;7321802;19;9548;-75
2023/10/10 01:10:07;;;;;;;;;;;15.70;99.90;;;;;;7320955;19;10340;-76
2023/10/10 01:12:39;;;;;;;;;;;15.70;99.90;;;;;;7320503;19;10719;-72
2023/10/10 01:15:25;;;;;;;;;;;15.70;99.90;;;;;;7320946;19;9467;-75
2023/10/10 01:17:57;;;;;;;;;;;15.70;99.90;;;;;;7315269;19;9199;-75
2023/10/10 01:20:42;;;;;;;;;;;15.70;99.90;;;;;;7321005;19;9259;-75
2023/10/10 01:23:12;;;;;;;;;;;15.70;99.90;;;;;;7319181;19;9144;-75
2023/10/10 01:25:45;;;;;;;;;;;15.70;99.90;;;;;;7320797;19;9274;-75
2023/10/10 01:28:23;;;;;;;;;;;15.80;99.90;;;;;;7319109;19;10114;-75
2023/10/10 01:31:03;;;;;;;;;;;15.70;99.90;;;;;;7319184;19;9200;-75
2023/10/10 01:33:42;;;;;;;;;;;15.80;99.90;;;;;;7316939;19;9264;-76
2023/10/10 01:36:19;;;;;;;;;;;15.70;99.90;;;;;;7317522;19;9268;-75
2023/10/10 01:39:22;;;;;;;;;;;15.60;99.90;;;;;;7317906;19;9477;-76
2023/10/10 01:41:51;;;;;;;;;;;15.60;99.90;;;;;;7315497;19;9320;-75
2023/10/10 01:44:22;;;;;;;;;;;15.60;99.90;;;;;;7319559;19;9507;-76
2023/10/10 01:46:53;;;;;;;;;;;15.50;99.90;;;;;;7315124;19;10664;-75
2023/10/10 01:49:28;;;;;;;;;;;15.40;99.90;;;;;;7321139;19;9325;-75
2023/10/10 01:52:02;;;;;;;;;;;15.40;99.90;;;;;;7317835;19;9294;-75
2023/10/10 01:54:34;;;;;;;;;;;15.40;99.90;;;;;;7316398;19;9250;-75
2023/10/10 01:57:07;;;;;;;;;;;15.40;99.90;;;;;;7321283;19;9408;-76
2023/10/10 01:59:38;;;;;;;;;;;15.40;99.90;;;;;;7319266;19;9567;-76
2023/10/10 02:02:13;;;;;;;;;;;15.40;99.90;;;;;;7321288;19;9452;-76
2023/10/10 02:04:44;;;;;;;;;;;15.40;99.90;;;;;;7320425;19;9222;-75
2023/10/10 02:07:22;;;;;;;;;;;15.40;99.90;;;;;;7320738;19;10534;-75
2023/10/10 02:10:00;;;;;;;;;;;15.30;99.90;;;;;;7318833;19;9450;-76
2023/10/10 02:12:33;;;;;;;;;;;15.30;99.90;;;;;;7318176;19;10680;-76
2023/10/10 02:15:05;;;;;;;;;;;15.30;99.90;;;;;;7321014;19;9234;-75
2023/10/10 02:17:39;;;;;;;;;;;15.30;99.90;;;;;;7315581;19;9211;-75
2023/10/10 02:20:33;;;;;;;;;;;15.30;99.90;;;;;;7318696;19;9277;-76
2023/10/10 02:23:23;;;;;;;;;;;15.40;99.90;;;;;;7314722;19;9269;-76
2023/10/10 02:25:53;;;;;;;;;;;15.30;99.90;;;;;;7316313;19;9121;-76
2023/10/10 02:28:42;;;;;;;;;;;15.30;99.90;;;;;;7319121;19;10299;-75
2023/10/10 02:31:13;;;;;;;;;;;15.30;99.90;;;;;;7318085;19;9464;-76
2023/10/10 02:33:48;;;;;;;;;;;15.30;99.90;;;;;;7317892;19;9920;-76
2023/10/10 02:36:30;;;;;;;;;;;15.30;99.90;;;;;;7319607;19;9214;-76
2023/10/10 02:39:18;;;;;;;;;;;15.20;99.90;;;;;;7318268;19;11025;-76
2023/10/10 02:41:59;;;;;;;;;;;15.20;99.90;;;;;;7319031;19;10670;-76
2023/10/10 02:44:38;;;;;;;;;;;15.20;99.90;;;;;;7319161;19;9332;-76
2023/10/10 02:47:08;;;;;;;;;;;15.20;99.90;;;;;;7316774;19;9479;-76
2023/10/10 02:49:38;;;;;;;;;;;15.20;99.90;;;;;;7322585;19;9704;-76
2023/10/10 02:52:14;;;;;;;;;;;15.10;99.90;;;;;;7324462;19;9119;-75
2023/10/10 02:54:53;;;;;;;;;;;15.10;99.90;;;;;;7324622;19;9221;-75
2023/10/10 02:57:30;;;;;;;;;;;15.10;99.90;;;;;;7325364;19;12262;-75
2023/10/10 03:02:53;;;;;;;;;;;15.10;99.90;;;;;;7324991;19;9135;-75
2023/10/10 03:05:38;;;;;;;;;;;15.20;99.90;;;;;;7323307;19;9362;-76
2023/10/10 03:08:13;;;;;;;;;;;15.20;99.90;;;;;;7323373;19;10828;-76
2023/10/10 03:10:53;;;;;;;;;;;15.20;99.90;;;;;;7324314;19;9230;-75
2023/10/10 03:13:36;;;;;;;;;;;15.20;99.90;;;;;;7322039;19;9371;-76
2023/10/10 03:19:13;;;;;;;;;;;15.20;99.90;;;;;;7318944;19;9212;-76
2023/10/10 03:21:51;;;;;;;;;;;15.20;99.90;;;;;;7323237;19;9500;-76
2023/10/10 03:24:50;;;;;;;;;;;15.20;99.90;;;;;;7323670;19;10325;-75
2023/10/10 03:35:52;;;;;;;;;;;15.10;99.90;;;;;;7323124;19;9501;-76
2023/10/10 03:38:45;;;;;;;;;;;15.10;99.90;;;;;;7326534;19;9201;-76
2023/10/10 05:24:14;;;;;;;;;;;15.80;99.90;;;;;;7320362;19;9682;-75
2023/10/10 05:26:49;;;;;;;;;;;15.80;99.90;;;;;;7320562;19;10813;-76
2023/10/10 05:29:19;;;;;;;;;;;15.70;99.90;;;;;;7319520;19;9249;-75
2023/10/10 05:31:51;;;;;;;;;;;15.70;99.90;;;;;;7321113;19;9282;-75
2023/10/10 05:34:23;;;;;;;;;;;15.70;99.90;;;;;;7321558;19;11163;-76
2023/10/10 05:36:55;;;;;;;;;;;15.60;99.90;;;;;;7317467;19;9118;-76
2023/10/10 05:39:24;;;;;;;;;;;15.60;99.90;;;;;;7319293;19;10719;-69
2023/10/10 05:41:55;;;;;;;;;;;15.60;99.90;;;;;;7320148;19;9599;-78
2023/10/10 05:44:24;;;;;;;;;;;15.60;99.90;;;;;;7319822;19;9497;-72
2023/10/10 05:47:01;;;;;;;;;;;15.60;99.90;;;;;;7318726;19;9337;-75
2023/10/10 05:49:30;;;;;;;;;;;15.50;99.90;;;;;;7320001;19;9337;-74
2023/10/10 05:52:02;;;;;;;;;;;15.50;99.90;;;;;;7316289;19;9474;-74
2023/10/10 05:54:30;;;;;;;;;;;15.50;99.90;;;;;;7320060;19;9221;-78
2023/10/10 05:57:00;;;;;;;;;;;15.60;99.90;;;;;;7317175;19;9285;-73
2023/10/10 05:59:29;;;;;;;;;;;15.50;99.90;;;;;;7311267;19;9614;-72
2023/10/10 06:01:58;;;;;;;;;;;15.50;99.90;;;;;;7314717;19;9679;-71
2023/10/10 06:04:28;;;;;;;;;;;15.50;99.90;;;;;;7317584;19;9205;-71
2023/10/10 06:06:59;;;;;;;;;;;15.50;99.90;;;;;;7317648;19;9256;-73
2023/10/10 06:09:34;;;;;;;;;;;15.50;99.90;;;;;;7317926;19;9665;-72
2023/10/10 06:12:04;;;;;;;;;;;15.50;99.90;;;;;;7316636;19;9200;-73
2023/10/10 06:14:36;;;;;;;;;;;15.50;99.90;;;;;;7318856;19;9274;-74
2023/10/10 06:17:05;;;;;;;;;;;15.50;99.90;;;;;;7314237;19;10423;-73
2023/10/10 06:19:34;;;;;;;;;;;15.50;99.90;;;;;;7317795;19;10772;-74
2023/10/10 06:22:08;;;;;;;;;;;15.50;99.90;;;;;;7315513;19;10198;-75
2023/10/10 06:24:40;;;;;;;;;;;15.50;99.90;;;;;;7320543;19;9288;-75
2023/10/10 06:27:09;;;;;;;;;;;15.40;99.90;;;;;;7324082;19;10264;-74
2023/10/10 06:29:40;;;;;;;;;;;15.50;99.90;;;;;;7326389;19;9312;-75
2023/10/10 06:32:15;;;;;;;;;;;15.40;99.90;;;;;;7326480;19;9258;-75
2023/10/10 06:34:49;;;;;;;;;;;15.50;99.90;;;;;;7322666;19;9306;-75
2023/10/10 06:37:26;;;;;;;;;;;15.50;99.90;;;;;;7325405;19;10291;-75
2023/10/10 06:40:08;;;;;;;;;;;15.40;99.90;;;;;;7324832;19;9493;-75
2023/10/10 06:42:38;;;;;;;;;;;15.40;99.90;;;;;;7327037;19;10320;-75
2023/10/10 06:45:11;;;;;;;;;;;15.40;99.90;;;;;;7323456;19;9241;-74
2023/10/10 06:47:43;;;;;;;;;;;15.40;99.90;;;;;;7316186;19;9332;-75
2023/10/10 06:50:13;;;;;;;;;;;15.40;99.90;;;;;;7324426;19;9264;-74
2023/10/10 06:52:44;;;;;;;;;;;15.40;99.90;;;;;;7322300;19;10253;-75
2023/10/10 06:55:21;;;;;;;;;;;15.40;99.90;;;;;;7323577;19;9459;-74
2023/10/10 06:58:05;;;;;;;;;;;15.40;99.90;;;;;;7324343;19;9319;-75
2023/10/10 07:00:44;;;;;;;;;;;15.40;99.90;;;;;;7320544;19;9162;-74
2023/10/10 07:03:18;;;;;;;;;;;15.50;99.90;;;;;;7320335;19;9264;-74
2023/10/10 07:05:48;;;;;;;;;;;15.50;99.90;;;;;;7322146;19;9198;-74
2023/10/10 07:08:25;;;;;;;;;;;15.60;99.90;;;;;;7325613;19;9134;-77
2023/10/10 07:10:57;;;;;;;;;;;15.70;99.90;;;;;;7316142;19;9225;-77
2023/10/10 07:13:29;;;;;;;;;;;15.80;99.90;;;;;;7322116;19;9284;-78
2023/10/10 07:15:58;;;;;;;;;;;15.80;99.90;;;;;;7320229;19;9484;-78
2023/10/10 07:18:27;;;;;;;;;;;15.80;99.90;;;;;;7320411;19;9654;-77
2023/10/10 07:21:04;;;;;;;;;;;15.80;99.90;;;;;;7322076;19;9278;-78
2023/10/10 07:23:53;;;;;;;;;;;15.90;99.90;;;;;;7323859;19;9160;-77
2023/10/10 07:26:28;;;;;;;;;;;16.00;99.90;;;;;;7323930;19;9345;-77
2023/10/10 07:29:20;;;;;;;;;;;16.30;99.90;;;;;;7319337;19;9566;-77
2023/10/10 07:31:46;;;;;;;;;;;16.50;99.90;;;;;;7319819;19;9587;-78
2023/10/10 07:34:17;;;;;;;;;;;16.50;99.90;;;;;;7317687;19;9226;-78
2023/10/10 07:36:50;;;;;;;;;;;16.60;99.90;;;;;;7324318;19;9533;-77
2023/10/10 07:42:03;;;;;;;;;;;17.20;99.90;;;;;;7321604;19;9317;-78
2023/10/10 07:44:32;;;;;;;;;;;17.50;99.90;;;;;;7324857;19;9625;-77
2023/10/10 07:47:25;;;;;;;;;;;17.70;99.90;;;;;;7314357;19;9684;-78
2023/10/10 07:49:55;;;;;;;;;;;17.90;99.90;;;;;;7320829;19;9487;-77
2023/10/10 07:52:25;;;;;;;;;;;17.80;99.90;;;;;;7321893;19;9501;-77
2023/10/10 07:55:03;;;;;;;;;;;17.70;99.90;;;;;;7325146;19;9900;-77
2023/10/10 07:57:55;;;;;;;;;;;17.50;99.90;;;;;;7316628;19;9297;-77
2023/10/10 08:00:34;;;;;;;;;;;17.40;99.90;;;;;;7324442;19;9262;-78
2023/10/10 08:03:05;;;;;;;;;;;17.40;99.90;;;;;;7324807;19;9590;-77
2023/10/10 08:05:34;;;;;;;;;;;17.30;99.90;;;;;;7321954;19;9289;-78
2023/10/10 08:08:05;;;;;;;;;;;17.40;99.90;;;;;;7325073;19;9513;-78
2023/10/10 08:10:38;;;;;;;;;;;17.40;99.90;;;;;;7324505;19;9119;-77
2023/10/10 08:13:10;;;;;;;;;;;17.40;99.90;;;;;;7324628;19;9567;-78
2023/10/10 08:15:56;;;;;;;;;;;17.30;99.90;;;;;;7320960;19;9606;-78
2023/10/10 08:21:10;;;;;;;;;;;17.40;99.90;;;;;;7322039;19;9663;-78
2023/10/10 08:23:42;;;;;;;;;;;17.40;99.90;;;;;;7322594;19;9192;-78
2023/10/10 08:26:17;;;;;;;;;;;17.40;99.90;;;;;;7324413;19;9489;-77
2023/10/10 08:28:49;;;;;;;;;;;17.50;99.90;;;;;;7323872;19;10867;-77
2023/10/10 08:31:19;;;;;;;;;;;17.60;99.90;;;;;;7324602;19;9258;-78
2023/10/10 08:33:48;;;;;;;;;;;17.50;99.90;;;;;;7323093;19;9648;-77
2023/10/10 08:36:23;;;;;;;;;;;17.60;99.90;;;;;;7320558;19;11493;-78
2023/10/10 08:38:53;;;;;;;;;;;17.60;99.90;;;;;;7325374;19;9365;-78
2023/10/10 08:41:29;;;;;;;;;;;17.60;99.90;;;;;;7322572;19;10421;-78
2023/10/10 08:44:02;;;;;;;;;;;17.60;99.90;;;;;;7323802;19;9276;-78
2023/10/10 08:46:40;;;;;;;;;;;17.60;99.90;;;;;;7321198;19;9170;-77
2023/10/10 08:49:10;;;;;;;;;;;17.60;99.90;;;;;;7321959;19;9248;-77
2023/10/10 08:51:39;;;;;;;;;;;17.80;99.90;;;;;;7319853;19;9197;-78
2023/10/10 08:54:12;;;;;;;;;;;17.80;99.90;;;;;;7317796;19;9272;-77
2023/10/10 08:56:41;;;;;;;;;;;17.90;99.90;;;;;;7322728;19;9257;-78
2023/10/10 08:59:17;;;;;;;;;;;17.90;99.90;;;;;;7324004;19;9532;-77
2023/10/10 09:01:46;;;;;;;;;;;17.90;99.90;;;;;;7313877;19;9265;-78
2023/10/10 09:04:18;;;;;;;;;;;17.90;99.90;;;;;;7323272;19;10670;-77
2023/10/10 09:06:58;;;;;;;;;;;18.00;99.90;;;;;;7323064;19;9599;-78
2023/10/10 09:09:37;;;;;;;;;;;18.10;99.90;;;;;;7321908;19;9496;-78
2023/10/10 09:12:12;;;;;;;;;;;18.20;99.90;;;;;;7322000;19;9567;-78
2023/10/10 09:14:49;;;;;;;;;;;18.20;99.90;;;;;;7325361;19;9157;-78
2023/10/10 09:17:32;;;;;;;;;;;18.30;99.90;;;;;;7319781;19;9548;-77
2023/10/10 09:20:12;;;;;;;;;;;18.40;99.90;;;;;;7328404;19;9754;-77
2023/10/10 09:22:51;;;;;;;;;;;18.50;99.90;;;;;;7326058;19;9334;-77
2023/10/10 09:25:25;;;;;;;;;;;18.60;99.90;;;;;;7319729;19;9224;-77
2023/10/10 09:28:04;;;;;;;;;;;18.60;99.90;;;;;;7324610;19;10685;-78
2023/10/10 09:30:40;;;;;;;;;;;18.60;99.90;;;;;;7322507;19;9424;-77
2023/10/10 09:35:58;;;;;;;;;;;18.60;99.90;;;;;;7320154;19;9448;-77
2023/10/10 09:38:34;;;;;;;;;;;18.60;99.90;;;;;;7321862;19;9746;-77
2023/10/10 09:41:14;;;;;;;;;;;18.60;99.90;;;;;;7321902;19;9416;-77
2023/10/10 09:44:28;;;;;;;;;;;18.60;99.90;;;;;;7321939;19;9248;-77
2023/10/10 09:47:13;;;;;;;;;;;18.80;99.90;;;;;;7318648;19;9226;-78
2023/10/10 09:49:47;;;;;;;;;;;18.90;99.90;;;;;;7320425;19;9474;-77
2023/10/10 09:55:38;;;;;;;;;;;18.90;99.90;;;;;;7320263;19;9280;-77
2023/10/10 09:58:00;;;;;;;;;;;19.00;99.90;;;;;;7318969;19;9359;-77
2023/10/10 10:00:35;;;;;;;;;;;19.10;99.90;;;;;;7319970;19;9292;-78
2023/10/10 10:03:31;;;;;;;;;;;19.20;99.90;;;;;;7322321;19;9142;-77
2023/10/10 10:06:34;;;;;;;;;;;19.30;99.90;;;;;;7320154;19;9286;-77
2023/10/10 10:09:45;;;;;;;;;;;19.60;99.90;;;;;;7319441;19;9982;-78
2023/10/10 10:12:43;;;;;;;;;;;19.70;99.90;;;;;;7321247;19;8944;-78
2023/10/10 10:15:28;;;;;;;;;;;19.80;99.90;;;;;;7315180;19;9387;-77
2023/10/10 10:18:18;;;;;;;;;;;19.70;99.90;;;;;;7294195;19;11136;-78
2023/10/10 10:21:04;;;;;;;;;;;19.70;99.90;;;;;;7285016;19;9601;-78
2023/10/10 10:23:45;;;;;;;;;;;19.70;99.90;;;;;;7312102;19;9177;-77
2023/10/10 10:26:29;;;;;;;;;;;19.70;99.90;;;;;;7319201;19;9437;-77
2023/10/10 10:29:00;;;;;;;;;;;19.70;99.90;;;;;;7303159;19;9313;-78
2023/10/10 10:31:37;;;;;;;;;;;19.90;99.90;;;;;;7319030;19;9117;-78
2023/10/10 10:34:23;;;;;;;;;;;20.00;99.90;;;;;;7310953;19;9284;-78
2023/10/10 10:37:13;;;;;;;;;;;20.00;99.90;;;;;;7318104;19;9889;-78
2023/10/10 10:40:22;;;;;;;;;;;20.10;99.90;;;;;;7317433;19;9193;-78
2023/10/10 10:42:37;;;;;;;;;;;20.20;99.90;;;;;;7315238;19;9426;-78
2023/10/10 10:45:33;;;;;;;;;;;20.10;99.90;;;;;;7314044;19;11520;-78
2023/10/10 10:48:09;;;;;;;;;;;20.10;99.90;;;;;;7315297;19;11669;-78
2023/10/10 10:50:44;;;;;;;;;;;20.20;99.90;;;;;;7315904;19;9313;-78
2023/10/10 10:53:35;;;;;;;;;;;20.20;99.90;;;;;;7313895;19;9168;-78
2023/10/10 10:56:37;;;;;;;;;;;20.20;99.90;;;;;;7309949;19;9490;-74
2023/10/10 10:59:12;;;;;;;;;;;20.20;99.90;;;;;;7318984;19;9471;-73
2023/10/10 11:01:45;;;;;;;;;;;20.20;99.90;;;;;;7317623;19;9620;-74
2023/10/10 11:04:25;;;;;;;;;;;20.20;99.90;;;;;;7316766;19;9340;-75
2023/10/10 11:07:03;;;;;;;;;;;20.30;99.90;;;;;;7318581;19;9180;-76
2023/10/10 11:09:52;;;;;;;;;;;20.30;99.90;;;;;;7319867;19;8952;-78
2023/10/10 11:12:31;;;;;;;;;;;20.30;99.90;;;;;;7324304;19;9316;-75
2023/10/10 11:15:05;;;;;;;;;;;20.40;99.90;;;;;;7324269;19;9297;-74
2023/10/10 11:17:38;;;;;;;;;;;20.40;99.90;;;;;;7321203;19;9479;-73
2023/10/10 11:20:29;;;;;;;;;;;20.40;99.90;;;;;;7324521;19;9249;-73
2023/10/10 11:23:14;;;;;;;;;;;20.40;99.90;;;;;;7319547;19;8944;-74
2023/10/10 11:25:46;;;;;;;;;;;20.50;99.90;;;;;;7322000;19;9419;-74
2023/10/10 11:28:21;;;;;;;;;;;20.60;99.90;;;;;;7317855;19;9310;-74
2023/10/10 11:30:58;;;;;;;;;;;20.70;99.90;;;;;;7323354;19;9352;-74
2023/10/10 11:33:56;;;;;;;;;;;20.70;99.90;;;;;;7317340;19;9462;-74
2023/10/10 11:36:29;;;;;;;;;;;20.70;99.90;;;;;;7319694;19;9676;-74
2023/10/10 11:41:48;;;;;;;;;;;20.60;99.90;;;;;;7321177;19;9505;-74
2023/10/10 11:44:22;;;;;;;;;;;20.50;99.90;;;;;;7324643;19;9186;-74
2023/10/10 11:47:02;;;;;;;;;;;20.40;99.90;;;;;;7318170;19;9273;-74
2023/10/10 11:49:32;;;;;;;;;;;20.40;99.90;;;;;;7321759;19;9508;-74
2023/10/10 11:52:01;;;;;;;;;;;20.40;99.90;;;;;;7321035;19;9217;-74
2023/10/10 11:54:32;;;;;;;;;;;20.50;99.90;;;;;;7322618;19;9255;-74
2023/10/10 11:57:15;;;;;;;;;;;20.50;99.90;;;;;;7322371;19;9238;-74
2023/10/10 11:59:52;;;;;;;;;;;20.60;99.90;;;;;;7319853;19;9245;-74
2023/10/10 12:02:29;;;;;;;;;;;20.80;99.90;;;;;;7322636;19;9190;-74
2023/10/10 12:05:25;;;;;;;;;;;20.90;99.90;;;;;;7319728;19;9468;-74
2023/10/10 12:08:05;;;;;;;;;;;21.00;99.90;;;;;;7321341;19;9308;-74
2023/10/10 12:10:52;;;;;;;;;;;21.00;99.90;;;;;;7319597;19;9293;-74
2023/10/10 12:13:33;;;;;;;;;;;21.00;99.90;;;;;;7316282;19;9270;-74
2023/10/10 12:16:11;;;;;;;;;;;21.10;99.90;;;;;;7314757;19;9201;-74
2023/10/10 12:18:44;;;;;;;;;;;21.10;99.90;;;;;;7316711;19;9510;-74
2023/10/10 12:21:19;;;;;;;;;;;21.20;99.90;;;;;;7314750;19;10610;-74
2023/10/10 12:23:49;;;;;;;;;;;21.20;99.90;;;;;;7317026;19;9525;-74
2023/10/10 12:26:22;;;;;;;;;;;21.30;99.90;;;;;;7322787;19;9432;-74
2023/10/10 12:28:52;;;;;;;;;;;21.20;99.90;;;;;;7321998;19;9580;-74
2023/10/10 12:31:21;;;;;;;;;;;21.10;99.90;;;;;;7320402;19;9192;-74
2023/10/10 12:33:53;;;;;;;;;;;21.10;99.90;;;;;;7319640;19;9301;-74
2023/10/10 12:36:28;;;;;;;;;;;21.10;99.90;;;;;;7320759;19;9471;-74
2023/10/10 12:38:58;;;;;;;;;;;21.10;99.90;;;;;;7322883;19;9496;-74
2023/10/10 12:41:35;;;;;;;;;;;21.00;99.90;;;;;;7322004;19;9594;-74
2023/10/10 12:44:06;;;;;;;;;;;21.00;99.90;;;;;;7322316;19;8987;-74
2023/10/10 12:46:35;;;;;;;;;;;21.00;99.90;;;;;;7317656;19;9238;-74
2023/10/10 12:49:04;;;;;;;;;;;21.00;99.90;;;;;;7317266;19;8937;-73
2023/10/10 12:51:33;;;;;;;;;;;21.00;99.90;;;;;;7317522;19;9235;-74
2023/10/10 12:54:09;;;;;;;;;;;21.00;99.90;;;;;;7320153;19;9124;-74
2023/10/10 12:56:48;;;;;;;;;;;21.00;99.90;;;;;;7316557;19;9319;-74
2023/10/10 12:59:18;;;;;;;;;;;21.00;99.90;;;;;;7322269;19;9481;-74
2023/10/10 13:01:47;;;;;;;;;;;20.90;99.90;;;;;;7315643;19;9277;-74
2023/10/10 13:04:18;;;;;;;;;;;21.00;99.90;;;;;;7317520;19;9609;-74
2023/10/10 13:06:51;;;;;;;;;;;21.00;99.90;;;;;;7318920;19;9520;-74
2023/10/10 13:09:20;;;;;;;;;;;21.00;99.90;;;;;;7316513;19;9491;-74
2023/10/10 13:11:56;;;;;;;;;;;21.00;99.90;;;;;;7315392;19;9531;-75
2023/10/10 13:14:29;;;;;;;;;;;21.10;99.90;;;;;;7319763;19;9293;-74
2023/10/10 13:17:28;;;;;;;;;;;21.10;99.90;;;;;;7317467;19;9177;-74
2023/10/10 13:19:58;;;;;;;;;;;21.20;99.90;;;;;;7319381;19;9446;-74
2023/10/10 13:22:29;;;;;;;;;;;21.30;99.90;;;;;;7319832;19;9520;-74
2023/10/10 13:24:58;;;;;;;;;;;21.30;99.90;;;;;;7318157;19;9272;-74
2023/10/10 13:27:30;;;;;;;;;;;21.30;99.90;;;;;;7307334;19;9483;-75
2023/10/10 13:29:59;;;;;;;;;;;21.40;99.90;;;;;;7318209;19;9418;-74
2023/10/10 13:32:28;;;;;;;;;;;21.40;99.90;;;;;;7322681;19;9506;-74
2023/10/10 13:34:57;;;;;;;;;;;21.40;99.90;;;;;;7322594;19;11070;-74
2023/10/10 13:37:26;;;;;;;;;;;21.40;99.90;;;;;;7319485;19;9385;-74
2023/10/10 13:39:55;;;;;;;;;;;21.40;99.90;;;;;;7311663;19;9474;-75
2023/10/10 13:42:24;;;;;;;;;;;21.40;99.90;;;;;;7313278;19;9347;-74
2023/10/10 13:45:09;;;;;;;;;;;21.40;99.90;;;;;;7319877;19;9254;-75
2023/10/10 13:47:40;;;;;;;;;;;21.30;99.90;;;;;;7314817;19;9321;-75
2023/10/10 13:52:59;;;;;;;;;;;21.30;99.90;;;;;;7320439;19;9241;-75
2023/10/10 13:55:30;;;;;;;;;;;21.40;99.90;;;;;;7317710;19;9683;-74
2023/10/10 13:58:07;;;;;;;;;;;21.30;99.90;;;;;;7317070;19;9610;-77
2023/10/10 14:00:41;;;;;;;;;;;21.20;99.90;;;;;;7318798;19;9469;-77
2023/10/10 14:03:14;;;;;;;;;;;21.10;99.90;;;;;;7320111;19;9105;-79
2023/10/10 14:06:00;;;;;;;;;;;21.10;99.90;;;;;;7319494;19;9262;-79
2023/10/10 14:08:30;;;;;;;;;;;21.00;99.90;;;;;;7315378;19;9464;-79
2023/10/10 14:11:01;;;;;;;;;;;21.00;99.90;;;;;;7320642;19;9460;-78
2023/10/10 14:13:30;;;;;;;;;;;20.90;99.90;;;;;;7321046;19;9239;-78
2023/10/10 14:16:03;;;;;;;;;;;20.90;99.90;;;;;;7317416;19;9176;-78
2023/10/10 14:18:42;;;;;;;;;;;20.90;99.90;;;;;;7320558;19;10964;-78
2023/10/10 14:21:13;;;;;;;;;;;20.90;99.90;;;;;;7322699;19;9413;-78
2023/10/10 14:23:45;;;;;;;;;;;20.80;99.90;;;;;;7318622;19;9262;-79
2023/10/10 14:26:18;;;;;;;;;;;20.80;99.90;;;;;;7321235;19;10756;-79
2023/10/10 14:28:52;;;;;;;;;;;20.80;99.90;;;;;;7319718;19;9484;-79
2023/10/10 14:31:27;;;;;;;;;;;20.80;99.90;;;;;;7320768;19;9178;-78
2023/10/10 14:33:59;;;;;;;;;;;20.80;99.90;;;;;;7315662;19;9244;-77
2023/10/10 14:36:28;;;;;;;;;;;20.70;99.90;;;;;;7318967;19;9267;-76
2023/10/10 14:38:57;;;;;;;;;;;20.70;99.90;;;;;;7317001;19;9253;-76
2023/10/10 14:41:30;;;;;;;;;;;20.70;99.90;;;;;;7319110;19;9269;-76
2023/10/10 14:44:03;;;;;;;;;;;20.70;99.90;;;;;;7319715;19;10158;-76
2023/10/10 14:46:35;;;;;;;;;;;20.70;99.90;;;;;;7323158;19;9927;-77
2023/10/10 14:49:16;;;;;;;;;;;20.70;99.90;;;;;;7327397;19;9237;-76
2023/10/10 14:51:48;;;;;;;;;;;20.70;99.90;;;;;;7323488;19;9452;-76
2023/10/10 14:54:19;;;;;;;;;;;20.60;99.90;;;;;;7324195;19;9474;-76
2023/10/10 14:56:50;;;;;;;;;;;20.60;99.90;;;;;;7326696;19;10577;-76
2023/10/10 14:59:24;;;;;;;;;;;20.60;99.90;;;;;;7326495;19;9229;-76
2023/10/10 15:01:59;;;;;;;;;;;20.60;99.90;;;;;;7323296;19;9276;-76
2023/10/10 15:04:33;;;;;;;;;;;20.60;99.90;;;;;;7322662;19;9103;-76
2023/10/10 15:07:04;;;;;;;;;;;20.50;99.90;;;;;;7325991;19;10293;-76
2023/10/10 15:09:35;;;;;;;;;;;20.50;99.90;;;;;;7321092;19;9301;-76
2023/10/10 15:12:07;;;;;;;;;;;20.40;99.90;;;;;;7324853;19;10694;-75
2023/10/10 15:14:35;;;;;;;;;;;20.40;99.90;;;;;;7323663;19;9265;-76
2023/10/10 15:17:09;;;;;;;;;;;20.40;99.90;;;;;;7317585;19;10648;-76
2023/10/10 15:19:41;;;;;;;;;;;20.30;99.90;;;;;;7324102;19;9189;-76
2023/10/10 15:22:15;;;;;;;;;;;20.30;99.90;;;;;;7323139;19;11415;-76
2023/10/10 15:24:49;;;;;;;;;;;20.30;99.90;;;;;;7325709;19;9528;-76
2023/10/10 15:27:19;;;;;;;;;;;20.30;99.90;;;;;;7322991;19;9633;-77
2023/10/10 15:29:48;;;;;;;;;;;20.20;99.90;;;;;;7322796;19;9407;-73
2023/10/10 15:32:20;;;;;;;;;;;20.20;99.90;;;;;;7322392;19;9437;-73
2023/10/10 15:34:49;;;;;;;;;;;20.20;99.90;;;;;;7321810;19;9319;-72
2023/10/10 15:37:19;;;;;;;;;;;20.20;99.90;;;;;;7324503;19;9168;-72
2023/10/10 15:39:48;;;;;;;;;;;20.30;99.90;;;;;;7320322;19;9525;-71
2023/10/10 15:42:18;;;;;;;;;;;20.30;99.90;;;;;;7325894;19;9546;-71
2023/10/10 15:44:47;;;;;;;;;;;20.30;99.90;;;;;;7324479;19;10325;-73
2023/10/10 15:47:18;;;;;;;;;;;20.30;99.90;;;;;;7322431;19;9665;-73
2023/10/10 15:49:50;;;;;;;;;;;20.20;99.90;;;;;;7322275;19;9206;-74
2023/10/10 15:52:20;;;;;;;;;;;20.20;99.90;;;;;;7322711;19;9451;-72
2023/10/10 15:54:50;;;;;;;;;;;20.20;99.90;;;;;;7323732;19;9181;-73
2023/10/10 15:57:22;;;;;;;;;;;20.10;99.90;;;;;;7322398;19;9487;-74
2023/10/10 15:59:51;;;;;;;;;;;20.10;99.90;;;;;;7324311;19;9562;-73
2023/10/10 16:02:21;;;;;;;;;;;20.10;99.90;;;;;;7322601;19;9496;-73
2023/10/10 16:04:52;;;;;;;;;;;20.00;99.90;;;;;;7322087;19;9242;-73
2023/10/10 16:07:22;;;;;;;;;;;20.00;99.90;;;;;;7325826;19;9702;-74
2023/10/10 16:09:52;;;;;;;;;;;19.90;99.90;;;;;;7321733;19;9298;-73
2023/10/10 16:12:21;;;;;;;;;;;19.80;99.90;;;;;;7323695;19;9122;-77
2023/10/10 16:14:50;;;;;;;;;;;19.80;99.90;;;;;;7320907;19;9685;-77
2023/10/10 16:17:19;;;;;;;;;;;19.80;99.90;;;;;;7317364;19;9176;-77
2023/10/10 16:19:48;;;;;;;;;;;19.80;99.90;;;;;;7319329;19;9630;-76
2023/10/10 16:22:19;;;;;;;;;;;19.80;99.90;;;;;;7320805;19;9688;-76
2023/10/10 16:24:52;;;;;;;;;;;19.70;99.90;;;;;;7324385;19;9261;-75
2023/10/10 16:27:21;;;;;;;;;;;19.60;99.90;;;;;;7323098;19;9126;-74
2023/10/10 16:29:55;;;;;;;;;;;19.60;99.90;;;;;;7322726;19;8980;-75
2023/10/10 16:32:24;;;;;;;;;;;19.70;99.90;;;;;;7323581;19;9418;-75
2023/10/10 16:34:54;;;;;;;;;;;19.60;99.90;;;;;;7320014;19;9533;-75
2023/10/10 16:37:26;;;;;;;;;;;19.50;99.90;;;;;;7321690;19;9257;-76
2023/10/10 16:39:55;;;;;;;;;;;19.50;99.90;;;;;;7322307;19;9419;-75
2023/10/10 16:42:26;;;;;;;;;;;19.50;99.90;;;;;;7323604;19;9471;-75
2023/10/10 16:44:55;;;;;;;;;;;19.50;99.90;;;;;;7323585;19;9145;-75
2023/10/10 16:47:24;;;;;;;;;;;19.50;99.90;;;;;;7319954;19;9225;-73
2023/10/10 16:49:53;;;;;;;;;;;19.50;99.90;;;;;;7322998;19;9172;-72
2023/10/10 16:52:27;;;;;;;;;;;19.40;99.90;;;;;;7319994;19;9471;-72
2023/10/10 16:54:56;;;;;;;;;;;19.40;99.90;;;;;;7322221;19;9689;-75
2023/10/10 16:57:25;;;;;;;;;;;19.40;99.90;;;;;;7323794;19;9359;-74
2023/10/10 16:59:55;;;;;;;;;;;19.40;99.90;;;;;;7319131;19;11596;-69
2023/10/10 17:02:27;;;;;;;;;;;19.40;99.90;;;;;;7319700;19;9237;-69
2023/10/10 17:04:56;;;;;;;;;;;19.40;99.90;;;;;;7321390;19;9543;-69
2023/10/10 17:07:27;;;;;;;;;;;19.30;99.90;;;;;;7322811;19;9213;-70
2023/10/10 17:09:56;;;;;;;;;;;19.20;99.90;;;;;;7320998;19;9340;-69
2023/10/10 17:12:25;;;;;;;;;;;19.30;99.90;;;;;;7322498;19;9602;-70
2023/10/10 17:14:56;;;;;;;;;;;19.30;99.90;;;;;;7320046;19;9615;-71
2023/10/10 17:17:25;;;;;;;;;;;19.20;99.90;;;;;;7314782;19;9484;-70
2023/10/10 17:19:54;;;;;;;;;;;19.30;99.90;;;;;;7320845;19;9258;-71
2023/10/10 17:22:23;;;;;;;;;;;19.30;99.90;;;;;;7318923;19;9242;-72
2023/10/10 17:24:55;;;;;;;;;;;19.30;99.90;;;;;;7323076;19;9281;-71
2023/10/10 17:27:24;;;;;;;;;;;19.30;99.90;;;;;;7322511;19;9348;-71
2023/10/10 17:29:56;;;;;;;;;;;19.30;99.90;;;;;;7321097;19;9231;-71